Time;durP1;ratioP1;P1;durP2;ratioP2;P2;SDS_P1;SDS_P2;PMS_P1;PMS_P2;Temp;Humidity;BMP_temperature;BMP_pressure;BME280_temperature;BME280_humidity;BME280_pressure;Samples;Min_cycle;Max_cycle;Signal;HPM_P1;HPM_P2
2022/10/18 00:00:19;;;;;;;;;7.75;7.00;;;;;18.18;85.94;101952.19;5062154;28;45247;-66
2022/10/18 00:02:45;;;;;;;;;7.00;6.00;;;;;18.16;86.00;101948.72;5060639;28;45243;-66
2022/10/18 00:05:11;;;;;;;;;6.00;6.00;;;;;18.15;85.97;101954.97;5061740;28;46266;-66
2022/10/18 00:07:36;;;;;;;;;6.75;6.75;;;;;18.12;86.18;101943.53;5061936;28;45539;-66
2022/10/18 00:10:03;;;;;;;;;8.50;6.75;;;;;18.08;86.51;101933.88;5061625;28;45441;-66
2022/10/18 00:12:28;;;;;;;;;6.00;5.50;;;;;18.02;86.30;101941.13;5061685;28;45307;-67
2022/10/18 00:14:53;;;;;;;;;7.50;7.25;;;;;17.97;86.18;101943.00;5071358;28;46183;-66
2022/10/18 00:17:19;;;;;;;;;9.25;8.50;;;;;17.94;86.35;101947.56;5069552;27;46018;-66
2022/10/18 00:19:45;;;;;;;;;7.00;7.00;;;;;17.91;86.68;101951.13;5066222;28;45271;-66
2022/10/18 00:22:10;;;;;;;;;9.00;7.75;;;;;17.88;86.88;101945.88;5061778;28;45327;-66
2022/10/18 00:24:36;;;;;;;;;8.00;6.75;;;;;17.84;86.60;101950.41;5061187;28;45307;-67
2022/10/18 00:27:01;;;;;;;;;11.50;9.00;;;;;17.81;86.50;101963.78;5061183;28;45272;-66
2022/10/18 00:29:26;;;;;;;;;9.00;9.00;;;;;17.75;86.34;101958.63;5061680;28;45360;-66
2022/10/18 00:31:51;;;;;;;;;8.75;7.00;;;;;17.75;86.76;101960.38;5061369;28;45600;-66
2022/10/18 00:34:17;;;;;;;;;6.75;6.75;;;;;17.72;86.65;101964.00;5061260;28;46239;-66
2022/10/18 00:36:43;;;;;;;;;9.00;7.75;;;;;17.68;87.10;101972.97;5061463;28;45188;-66
2022/10/18 00:39:16;;;;;;;;;9.25;9.25;;;;;17.69;86.67;101972.91;5060127;28;45268;-66
2022/10/18 00:41:42;;;;;;;;;8.00;6.00;;;;;17.70;86.78;101976.47;5061093;28;45335;-66
2022/10/18 00:44:10;;;;;;;;;8.00;6.00;;;;;17.73;86.95;101975.53;5060916;28;46156;-66
2022/10/18 00:46:38;;;;;;;;;11.75;8.00;;;;;17.73;86.81;101963.09;5061242;28;45240;-66
2022/10/18 00:49:15;;;;;;;;;10.00;7.00;;;;;17.73;87.22;101951.59;5061093;28;45439;-66
2022/10/18 00:51:45;;;;;;;;;11.75;8.50;;;;;17.74;87.11;101963.97;5060939;28;45318;-66
2022/10/18 00:54:13;;;;;;;;;8.75;8.50;;;;;17.74;87.18;101967.50;5061037;28;46791;-66
2022/10/18 00:56:39;;;;;;;;;11.50;10.25;;;;;17.73;87.19;101957.78;5060458;28;45507;-66
2022/10/18 00:59:05;;;;;;;;;10.25;10.25;;;;;17.74;86.80;101963.97;5060992;28;45457;-66
2022/10/18 01:01:31;;;;;;;;;7.50;7.50;;;;;17.73;86.85;101968.41;5060948;28;45573;-66
2022/10/18 01:03:56;;;;;;;;;14.75;11.25;;;;;17.75;86.65;101973.69;5060825;28;45398;-66
2022/10/18 01:06:23;;;;;;;;;9.25;9.25;;;;;17.77;86.40;101970.06;5059849;28;45272;-66
2022/10/18 01:09:01;;;;;;;;;8.25;8.25;;;;;17.80;86.45;101979.78;5059966;28;45370;-66
2022/10/18 01:11:44;;;;;;;;;11.50;8.75;;;;;17.82;86.55;101972.63;5060272;28;45374;-66
2022/10/18 01:14:12;;;;;;;;;10.00;9.25;;;;;17.82;86.25;101970.84;5064924;28;45194;-64
2022/10/18 01:17:12;;;;;;;;;13.00;10.00;;;;;17.82;86.53;101964.66;5074213;28;45503;-66
2022/10/18 01:19:43;;;;;;;;;10.75;9.50;;;;;17.85;86.43;101970.75;5064266;28;45564;-66
2022/10/18 01:22:27;;;;;;;;;13.25;12.00;;;;;17.83;86.13;101972.56;5060745;28;45485;-66
2022/10/18 01:25:20;;;;;;;;;10.75;8.25;;;;;17.84;86.28;101979.66;5060331;28;46487;-66
2022/10/18 01:27:54;;;;;;;;;10.50;10.00;;;;;17.84;86.65;101984.97;5060403;28;45211;-66
2022/10/18 01:30:46;;;;;;;;;10.00;9.75;;;;;17.78;86.57;101979.78;5060507;28;45181;-66
2022/10/18 01:33:39;;;;;;;;;11.50;10.25;;;;;17.83;86.78;101979.69;5060208;28;45304;-66
2022/10/18 01:36:20;;;;;;;;;10.00;10.00;;;;;17.80;86.76;101977.97;5060507;28;45365;-66
2022/10/18 01:38:51;;;;;;;;;10.75;9.75;;;;;17.82;86.85;101984.16;5060352;28;45220;-66
2022/10/18 01:41:19;;;;;;;;;10.00;10.00;;;;;17.81;86.95;101982.41;5060269;28;45338;-66
2022/10/18 01:43:47;;;;;;;;;8.25;7.00;;;;;17.82;86.94;101985.91;5060221;28;45323;-66
2022/10/18 01:46:18;;;;;;;;;10.25;10.25;;;;;17.83;86.77;101982.34;5060152;28;46437;-66
2022/10/18 01:48:45;;;;;;;;;12.50;12.25;;;;;17.82;86.25;101984.16;5060115;28;45386;-66
2022/10/18 01:51:10;;;;;;;;;12.75;11.25;;;;;17.83;86.78;101983.22;5060231;28;45205;-67
2022/10/18 01:53:35;;;;;;;;;12.00;9.50;;;;;17.86;86.36;101992.91;5059902;28;45503;-66
2022/10/18 01:56:29;;;;;;;;;12.50;10.50;;;;;17.85;86.43;101984.06;5059880;28;45265;-66
2022/10/18 01:59:21;;;;;;;;;11.25;10.75;;;;;17.85;86.56;101976.06;5060426;28;45306;-66
2022/10/18 02:01:56;;;;;;;;;8.50;6.25;;;;;17.83;86.79;101967.25;5060091;28;45334;-66
2022/10/18 02:04:32;;;;;;;;;6.00;6.00;;;;;17.83;86.52;101966.41;5060088;28;45294;-69
2022/10/18 02:07:07;;;;;;;;;7.50;6.25;;;;;17.78;86.60;101962.97;5059996;28;46096;-66
2022/10/18 02:09:44;;;;;;;;;8.50;7.00;;;;;17.79;86.35;101970.06;5059871;28;45193;-66
2022/10/18 02:12:13;;;;;;;;;12.25;8.00;;;;;17.78;86.47;101974.47;5059673;28;45461;-66
2022/10/18 02:14:41;;;;;;;;;8.00;7.00;;;;;17.75;86.53;101971.03;5067277;28;45555;-67
2022/10/18 02:17:11;;;;;;;;;7.00;6.50;;;;;17.75;86.63;101976.34;5069459;28;46112;-66
2022/10/18 02:19:45;;;;;;;;;8.25;8.25;;;;;17.69;86.52;101975.56;5062591;28;45398;-66
2022/10/18 02:22:11;;;;;;;;;9.50;9.50;;;;;17.67;86.05;101974.75;5060049;28;45215;-67
2022/10/18 02:24:41;;;;;;;;;7.50;6.75;;;;;17.62;86.06;101975.75;5059652;28;45421;-67
2022/10/18 02:27:08;;;;;;;;;10.50;10.50;;;;;17.57;85.88;101981.19;5059279;28;47192;-66
2022/10/18 02:29:33;;;;;;;;;12.00;8.75;;;;;17.44;86.66;101959.34;5059592;28;45236;-67
2022/10/18 02:32:16;;;;;;;;;10.75;9.75;;;;;17.51;86.46;101979.56;5060944;28;45177;-67
2022/10/18 02:35:06;;;;;;;;;12.75;10.25;;;;;17.46;86.45;101978.81;5063254;28;45461;-67
2022/10/18 02:37:36;;;;;;;;;11.50;10.00;;;;;17.45;86.42;101984.16;5062929;28;46087;-67
2022/10/18 02:40:04;;;;;;;;;8.00;7.25;;;;;17.40;86.47;101986.91;5061931;28;45396;-67
2022/10/18 02:42:47;;;;;;;;;10.00;10.00;;;;;17.39;86.64;101995.78;5062957;28;45232;-67
2022/10/18 02:45:13;;;;;;;;;8.75;8.75;;;;;17.39;86.88;102003.75;5062948;28;45280;-67
2022/10/18 02:47:38;;;;;;;;;10.25;8.25;;;;;17.41;86.73;102009.03;5063014;28;46435;-67
2022/10/18 02:50:04;;;;;;;;;8.75;7.75;;;;;17.42;86.87;102003.72;5062961;28;45441;-67
2022/10/18 02:52:30;;;;;;;;;12.75;11.00;;;;;17.43;86.67;102004.56;5063229;28;45174;-67
2022/10/18 02:54:55;;;;;;;;;7.50;7.25;;;;;17.45;86.73;102008.06;5062577;28;45240;-66
2022/10/18 02:57:20;;;;;;;;;6.50;6.50;;;;;17.44;86.81;102014.28;5062782;28;47971;-67
2022/10/18 02:59:45;;;;;;;;;7.50;6.50;;;;;17.43;86.41;102010.75;5062878;28;45194;-67
2022/10/18 03:02:11;;;;;;;;;6.25;5.75;;;;;17.45;86.87;102008.94;5062869;28;47398;-67
2022/10/18 03:04:36;;;;;;;;;10.25;10.25;;;;;17.46;86.84;102018.66;5061433;28;45536;-66
2022/10/18 03:07:01;;;;;;;;;8.25;8.25;;;;;17.48;86.76;102019.50;5062966;28;45460;-66
2022/10/18 03:09:27;;;;;;;;;12.25;7.50;;;;;17.48;86.61;102016.84;5062715;28;45216;-67
2022/10/18 03:11:52;;;;;;;;;5.75;5.50;;;;;17.44;86.63;102009.84;5061211;28;45268;-67
2022/10/18 03:14:17;;;;;;;;;6.75;6.25;;;;;17.44;86.11;102007.19;5067679;28;45444;-67
2022/10/18 03:16:43;;;;;;;;;9.25;6.75;;;;;17.35;86.07;102002.94;5075584;27;45353;-67
2022/10/18 03:19:08;;;;;;;;;8.50;7.25;;;;;17.32;86.10;102000.38;5066572;28;45393;-66
2022/10/18 03:21:33;;;;;;;;;10.50;7.00;;;;;17.30;86.14;102009.28;5063025;28;45235;-66
2022/10/18 03:23:59;;;;;;;;;8.00;8.00;;;;;17.22;86.09;102010.31;5062612;28;45232;-67
2022/10/18 03:26:24;;;;;;;;;10.00;10.00;;;;;17.19;86.47;102007.75;5062157;28;50035;-67
2022/10/18 03:28:50;;;;;;;;;8.00;8.00;;;;;17.19;86.57;102015.72;5062376;28;45263;-67
2022/10/18 03:31:15;;;;;;;;;8.25;8.25;;;;;17.17;86.18;102025.50;5062756;28;45375;-67
2022/10/18 03:33:41;;;;;;;;;11.25;10.75;;;;;17.14;86.24;102030.00;5062243;28;45294;-67
2022/10/18 03:36:06;;;;;;;;;11.00;9.50;;;;;17.14;86.42;102028.19;5062173;28;45302;-67
2022/10/18 03:38:31;;;;;;;;;10.75;7.75;;;;;17.13;85.86;102029.13;5061099;28;45342;-67
2022/10/18 03:40:57;;;;;;;;;11.50;10.50;;;;;17.16;86.17;102031.69;5062079;28;45302;-67
2022/10/18 03:43:22;;;;;;;;;9.75;8.25;;;;;17.18;86.14;102032.56;5061693;28;45257;-67
2022/10/18 03:45:47;;;;;;;;;8.00;8.00;;;;;17.18;86.48;102036.97;5062041;28;45654;-67
2022/10/18 03:48:13;;;;;;;;;11.25;10.50;;;;;17.22;86.45;102036.03;5062127;28;45318;-65
2022/10/18 03:50:38;;;;;;;;;8.75;8.00;;;;;17.22;86.54;102036.88;5062237;28;45236;-66
2022/10/18 03:53:04;;;;;;;;;9.75;9.75;;;;;17.24;86.50;102038.66;5061118;28;45294;-66
2022/10/18 03:55:29;;;;;;;;;11.75;11.75;;;;;17.23;86.38;102043.06;5061447;28;46324;-66
2022/10/18 03:57:54;;;;;;;;;11.00;10.00;;;;;17.25;85.99;102035.94;5061811;28;49832;-60
2022/10/18 04:00:20;;;;;;;;;11.50;10.25;;;;;17.24;85.45;102039.50;5062023;28;45354;-60
2022/10/18 04:02:45;;;;;;;;;6.00;6.00;;;;;17.28;86.04;102048.28;5062152;28;45419;-60
2022/10/18 04:05:11;;;;;;;;;8.75;7.00;;;;;17.32;86.30;102055.28;5061767;28;45298;-60
2022/10/18 04:07:37;;;;;;;;;8.75;8.25;;;;;17.36;86.26;102054.31;5062064;28;45511;-60
2022/10/18 04:10:02;;;;;;;;;10.50;8.25;;;;;17.42;86.11;102059.50;5061606;28;45375;-60
2022/10/18 04:12:28;;;;;;;;;6.75;6.75;;;;;17.45;86.00;102061.22;5061768;28;45260;-60
2022/10/18 04:14:53;;;;;;;;;7.75;7.75;;;;;17.47;85.88;102056.72;5071875;28;46063;-60
2022/10/18 04:17:18;;;;;;;;;9.25;8.00;;;;;17.50;85.93;102069.97;5069362;27;55639;-60
2022/10/18 04:19:44;;;;;;;;;10.50;7.25;;;;;17.50;85.57;102068.16;5064896;28;45334;-60
2022/10/18 04:22:10;;;;;;;;;6.00;6.00;;;;;17.52;85.89;102058.38;5061403;28;50546;-60
2022/10/18 04:24:37;;;;;;;;;7.00;7.00;;;;;17.53;85.34;102060.13;5061431;28;46257;-60
2022/10/18 04:27:04;;;;;;;;;8.00;7.50;;;;;17.57;85.42;102065.38;5061184;28;45363;-60
2022/10/18 04:29:30;;;;;;;;;7.50;5.25;;;;;17.57;85.53;102058.25;5061506;28;45264;-60
2022/10/18 04:31:55;;;;;;;;;7.50;7.00;;;;;17.62;85.52;102058.16;5061332;28;45216;-60
2022/10/18 04:34:21;;;;;;;;;10.00;8.25;;;;;17.63;84.90;102054.59;5061076;28;45410;-60
2022/10/18 04:36:46;;;;;;;;;7.00;7.00;;;;;17.68;85.12;102060.69;5061395;28;45233;-60
2022/10/18 04:39:11;;;;;;;;;9.00;7.75;;;;;17.68;84.77;102058.91;5061442;28;45252;-60
2022/10/18 04:41:36;;;;;;;;;8.00;6.50;;;;;17.69;84.71;102047.34;5061063;28;45306;-60
2022/10/18 04:44:02;;;;;;;;;7.00;7.00;;;;;17.70;84.70;102048.25;5059836;28;45984;-60
2022/10/18 04:46:27;;;;;;;;;9.00;8.00;;;;;17.71;84.87;102050.84;5061432;28;45647;-60
2022/10/18 04:48:52;;;;;;;;;7.50;7.00;;;;;17.74;84.86;102057.88;5060975;28;45352;-60
2022/10/18 04:51:18;;;;;;;;;7.25;7.25;;;;;17.76;84.63;102053.41;5061249;28;45433;-60
2022/10/18 04:53:43;;;;;;;;;7.25;5.75;;;;;17.77;84.52;102051.63;5060375;28;46047;-60
2022/10/18 04:56:08;;;;;;;;;8.25;8.25;;;;;17.78;84.47;102053.38;5060475;28;45297;-60
2022/10/18 04:58:34;;;;;;;;;7.00;7.00;;;;;17.80;84.73;102052.44;5061012;28;45379;-60
2022/10/18 05:00:59;;;;;;;;;7.00;6.00;;;;;17.81;84.29;102058.59;5061181;28;45367;-60
2022/10/18 05:03:24;;;;;;;;;7.25;6.25;;;;;17.81;83.89;102058.59;5060600;28;45293;-60
2022/10/18 05:05:50;;;;;;;;;10.75;9.00;;;;;17.84;84.31;102070.03;5059845;28;45384;-60
2022/10/18 05:08:15;;;;;;;;;9.00;8.25;;;;;17.85;84.11;102070.94;5059603;28;45315;-60
2022/10/18 05:10:40;;;;;;;;;14.00;12.50;;;;;17.86;83.84;102062.91;5059083;28;45323;-60
2022/10/18 05:13:06;;;;;;;;;12.25;9.50;;;;;17.85;83.95;102069.13;5060671;28;45598;-59
2022/10/18 05:15:31;;;;;;;;;7.25;6.75;;;;;17.87;83.67;102070.00;5075156;28;45484;-60
2022/10/18 05:17:56;;;;;;;;;7.00;6.25;;;;;17.86;83.74;102076.22;5063175;28;45836;-59
2022/10/18 05:20:22;;;;;;;;;9.50;7.50;;;;;17.86;83.72;102072.66;5063357;28;45462;-60
2022/10/18 05:22:47;;;;;;;;;10.25;9.00;;;;;17.84;83.74;102083.34;5076790;28;48242;-59
2022/10/18 05:25:12;;;;;;;;;8.50;6.25;;;;;17.84;83.94;102079.81;5080287;27;52663;-60
2022/10/18 05:27:38;;;;;;;;;10.25;9.50;;;;;17.83;83.70;102073.59;5080810;27;45266;-60
2022/10/18 05:30:03;;;;;;;;;35.50;33.25;;;;;17.82;83.77;102071.88;5076747;27;45583;-70
2022/10/18 05:32:29;;;;;;;;;10.25;7.50;;;;;17.83;84.10;102067.44;5078252;28;45480;-71
2022/10/18 05:34:54;;;;;;;;;8.50;7.00;;;;;17.83;84.15;102062.09;5073644;27;51033;-73
2022/10/18 05:37:20;;;;;;;;;8.00;7.00;;;;;17.82;84.37;102063.00;5070284;28;45464;-68
2022/10/18 05:39:46;;;;;;;;;9.75;8.00;;;;;17.81;84.02;102066.56;5066781;27;45476;-68
2022/10/18 05:42:11;;;;;;;;;10.25;7.00;;;;;17.79;84.21;102063.09;5071943;28;46445;-71
2022/10/18 05:44:37;;;;;;;;;11.00;8.00;;;;;17.76;84.49;102073.78;5066431;27;45400;-66
2022/10/18 05:47:02;;;;;;;;;11.50;8.25;;;;;17.75;84.18;102075.59;5067176;28;45288;-65
2022/10/18 05:49:27;;;;;;;;;11.50;10.25;;;;;17.75;84.16;102072.03;5078993;28;45448;-65
2022/10/18 05:51:53;;;;;;;;;10.50;9.50;;;;;17.74;84.54;102078.28;5066643;27;46032;-61
2022/10/18 05:54:19;;;;;;;;;14.75;11.75;;;;;17.70;84.31;102070.38;5069968;27;45476;-67
2022/10/18 05:56:45;;;;;;;;;12.25;10.75;;;;;17.72;84.65;102070.31;5073096;28;45350;-64
2022/10/18 05:59:10;;;;;;;;;8.00;8.00;;;;;17.69;84.56;102071.28;5070402;28;45461;-65
2022/10/18 06:01:41;;;;;;;;;10.75;9.25;;;;;17.68;84.66;102081.94;5066159;27;46775;-66
2022/10/18 06:04:08;;;;;;;;;13.25;10.00;;;;;17.63;84.90;102076.72;5069189;27;45204;-65
2022/10/18 06:06:35;;;;;;;;;11.50;9.00;;;;;17.64;84.78;102078.47;5065681;27;45359;-68
2022/10/18 06:09:02;;;;;;;;;9.25;9.25;;;;;17.65;84.95;102082.88;5068086;27;45487;-65
2022/10/18 06:11:28;;;;;;;;;12.00;8.50;;;;;17.67;84.96;102080.19;5072350;28;45685;-63
2022/10/18 06:13:54;;;;;;;;;14.50;12.25;;;;;17.68;85.00;102090.81;5072003;28;45254;-59
2022/10/18 06:16:21;;;;;;;;;11.25;10.00;;;;;17.67;84.68;102090.81;5076979;28;45223;-58
2022/10/18 06:18:52;;;;;;;;;9.50;8.75;;;;;17.68;84.43;102100.56;5079796;27;45564;-61
2022/10/18 06:21:18;;;;;;;;;9.50;9.50;;;;;17.69;84.91;102102.31;5077489;27;46485;-66
2022/10/18 06:23:49;;;;;;;;;10.75;8.25;;;;;17.70;84.83;102102.25;5067656;27;45185;-66
2022/10/18 06:26:14;;;;;;;;;11.00;9.75;;;;;17.74;84.63;102110.19;5079323;28;45333;-66
2022/10/18 06:28:39;;;;;;;;;8.00;8.00;;;;;17.75;84.85;102107.50;5079969;27;45320;-66
2022/10/18 06:31:05;;;;;;;;;7.50;7.50;;;;;17.76;84.85;102100.38;5073804;27;45376;-65
2022/10/18 06:33:32;;;;;;;;;10.00;10.00;;;;;17.76;84.69;102095.94;5071976;28;45331;-63
2022/10/18 06:36:17;;;;;;;;;10.75;9.25;;;;;17.74;84.85;102095.09;5074657;27;45442;-65
2022/10/18 06:38:43;;;;;;;;;12.50;11.00;;;;;17.76;84.69;102095.94;5061021;28;45320;-64
2022/10/18 06:41:09;;;;;;;;;12.50;9.50;;;;;17.79;84.52;102097.66;5066425;28;46078;-64
2022/10/18 06:43:34;;;;;;;;;10.00;9.25;;;;;17.81;84.57;102104.69;5059593;28;45473;-64
2022/10/18 06:46:03;;;;;;;;;12.75;9.25;;;;;17.83;84.90;102105.50;5065943;28;45231;-66
2022/10/18 06:48:29;;;;;;;;;11.25;10.00;;;;;17.87;84.91;102111.63;5067380;27;45361;-64
2022/10/18 06:51:00;;;;;;;;;18.00;13.25;;;;;17.89;84.48;102109.84;5076837;28;46373;-63
2022/10/18 06:53:29;;;;;;;;;9.75;9.00;;;;;17.92;84.50;102117.72;5068269;28;45393;-64
2022/10/18 06:55:59;;;;;;;;;12.00;12.00;;;;;17.94;84.20;102118.59;5057052;28;45397;-64
2022/10/18 06:58:24;;;;;;;;;11.00;9.25;;;;;17.96;84.37;102122.13;5059024;28;45345;-65
2022/10/18 07:00:50;;;;;;;;;16.50;11.50;;;;;17.99;84.47;102122.03;5069563;28;46066;-65
2022/10/18 07:03:15;;;;;;;;;14.75;11.25;;;;;18.02;84.61;102131.72;5079383;27;45296;-65
2022/10/18 07:05:40;;;;;;;;;10.50;9.75;;;;;18.03;84.59;102139.66;5079328;27;45890;-65
2022/10/18 07:08:06;;;;;;;;;9.25;8.75;;;;;18.07;84.21;102137.81;5078260;28;45296;-65
2022/10/18 07:10:31;;;;;;;;;10.50;9.25;;;;;18.10;84.22;102140.41;5060551;27;53580;-65
2022/10/18 07:12:56;;;;;;;;;7.25;7.00;;;;;18.13;83.86;102140.31;5058845;28;45416;-65
2022/10/18 07:15:23;;;;;;;;;9.25;8.00;;;;;18.16;83.85;102144.69;5069091;28;45527;-65
2022/10/18 07:17:49;;;;;;;;;8.00;8.00;;;;;18.19;84.21;102141.97;5063700;27;45303;-65
2022/10/18 07:20:14;;;;;;;;;9.00;9.00;;;;;18.23;83.92;102148.09;5066063;28;47125;-65
2022/10/18 07:22:39;;;;;;;;;11.00;9.50;;;;;18.28;83.70;102148.84;5062410;28;45472;-65
2022/10/18 07:25:06;;;;;;;;;13.00;11.25;;;;;18.31;83.51;102151.44;5062320;28;45251;-65
2022/10/18 07:27:36;;;;;;;;;9.75;8.50;;;;;18.33;83.15;102154.94;5062139;28;45477;-65
2022/10/18 07:30:02;;;;;;;;;12.50;11.50;;;;;18.35;83.30;102150.44;5062166;28;45401;-65
2022/10/18 07:32:27;;;;;;;;;7.75;6.75;;;;;18.36;83.05;102146.88;5061980;28;45308;-65
2022/10/18 07:34:53;;;;;;;;;16.25;11.50;;;;;18.38;82.72;102142.41;5062087;28;45207;-65
2022/10/18 07:37:18;;;;;;;;;9.50;9.25;;;;;18.43;82.84;102158.25;5061847;28;45522;-65
2022/10/18 07:39:44;;;;;;;;;9.00;8.00;;;;;18.44;82.95;102157.31;5063841;28;45401;-65
2022/10/18 07:42:09;;;;;;;;;17.75;14.50;;;;;18.46;83.07;102150.19;5061841;28;45386;-65
2022/10/18 07:44:34;;;;;;;;;11.50;11.50;;;;;18.48;82.99;102149.22;5070015;28;45418;-65
2022/10/18 07:47:00;;;;;;;;;12.50;11.00;;;;;18.52;82.40;102155.34;5061991;28;45312;-66
2022/10/18 07:49:25;;;;;;;;;10.00;10.00;;;;;18.51;82.21;102158.91;5061914;28;45396;-66
2022/10/18 07:51:50;;;;;;;;;20.00;15.50;;;;;18.52;82.24;102168.66;5060535;28;45484;-65
2022/10/18 07:54:16;;;;;;;;;11.25;11.25;;;;;18.54;82.19;102172.16;5062087;28;45310;-65
2022/10/18 07:56:42;;;;;;;;;8.50;8.50;;;;;18.56;82.05;102173.00;5061506;28;45312;-66
2022/10/18 07:59:09;;;;;;;;;10.25;8.50;;;;;18.61;82.18;102180.88;5060598;28;46249;-66
2022/10/18 08:01:34;;;;;;;;;11.50;9.75;;;;;18.62;81.79;102187.94;5061660;28;45165;-66
2022/10/18 08:03:59;;;;;;;;;7.25;5.75;;;;;18.66;82.08;102181.63;5061957;28;45354;-66
2022/10/18 08:06:25;;;;;;;;;6.75;5.75;;;;;18.70;81.45;102188.59;5061612;28;45303;-66
2022/10/18 08:08:51;;;;;;;;;7.75;7.50;;;;;18.72;81.40;102189.47;5061628;28;46397;-65
2022/10/18 08:11:20;;;;;;;;;7.50;7.50;;;;;18.73;81.17;102193.88;5061084;28;45671;-64
2022/10/18 08:13:46;;;;;;;;;7.75;7.00;;;;;18.67;81.30;102194.03;5062659;28;45387;-66
2022/10/18 08:16:17;;;;;;;;;6.50;6.25;;;;;18.75;80.95;102201.81;5079155;27;45576;-66
2022/10/18 08:18:43;;;;;;;;;7.00;5.25;;;;;18.78;80.52;102209.72;5068669;28;46798;-66
2022/10/18 08:21:10;;;;;;;;;7.75;6.00;;;;;18.81;80.50;102207.00;5080419;27;45307;-66
2022/10/18 08:23:37;;;;;;;;;6.00;6.00;;;;;18.84;80.52;102213.13;5079238;28;45401;-66
2022/10/18 08:26:14;;;;;;;;;10.25;7.50;;;;;18.80;80.06;102200.81;5079678;27;45524;-65
2022/10/18 08:28:40;;;;;;;;;7.00;7.00;;;;;18.86;79.66;102210.41;5078241;28;46452;-65
2022/10/18 08:31:09;;;;;;;;;7.50;6.00;;;;;18.88;79.88;102221.00;5079750;27;45310;-64
2022/10/18 08:33:35;;;;;;;;;6.75;4.50;;;;;18.91;79.75;102224.50;5075902;28;45397;-65
2022/10/18 08:36:06;;;;;;;;;6.25;6.25;;;;;18.97;78.50;102226.16;5078438;28;45571;-65
2022/10/18 08:38:36;;;;;;;;;7.00;7.00;;;;;19.03;79.21;102227.78;5079443;27;46073;-64
2022/10/18 08:41:32;;;;;;;;;5.25;5.25;;;;;19.15;79.67;102228.31;5078322;28;45471;-64
2022/10/18 08:44:21;;;;;;;;;4.75;4.75;;;;;19.27;78.88;102227.13;5076871;28;45342;-65
2022/10/18 08:46:50;;;;;;;;;5.00;3.00;;;;;19.35;78.70;102232.22;5077565;28;45317;-65
2022/10/18 08:49:43;;;;;;;;;5.00;4.75;;;;;19.37;77.70;102232.19;5075074;28;46321;-65
2022/10/18 08:52:31;;;;;;;;;4.00;2.75;;;;;19.36;77.36;102220.66;5070969;27;45447;-65
2022/10/18 08:55:09;;;;;;;;;3.00;3.00;;;;;19.37;77.96;102213.53;5077763;28;45406;-66
2022/10/18 08:57:34;;;;;;;;;5.75;4.00;;;;;19.40;77.57;102214.31;5077398;28;45433;-66
2022/10/18 09:00:04;;;;;;;;;4.00;4.00;;;;;19.52;78.13;102214.88;5079572;27;46258;-66
2022/10/18 09:03:08;;;;;;;;;3.50;3.50;;;;;19.70;77.05;102214.38;5079613;27;45731;-65
2022/10/18 09:05:59;;;;;;;;;2.75;2.75;;;;;19.80;75.74;102214.97;5076924;28;45426;-65
2022/10/18 09:08:44;;;;;;;;;2.50;2.00;;;;;19.96;75.08;102216.28;5076953;28;45824;-65
2022/10/18 09:11:50;;;;;;;;;2.50;2.50;;;;;19.98;74.64;102208.22;5075575;28;46362;-65
2022/10/18 09:14:39;;;;;;;;;0.00;0.00;;;;;19.90;74.83;102207.59;5073185;27;45434;-65
2022/10/18 09:17:46;;;;;;;;;3.00;1.00;;;;;19.87;75.09;102203.22;5071070;28;45485;-65
2022/10/18 09:20:41;;;;;;;;;1.25;1.00;;;;;19.92;74.79;102200.41;5066488;28;45892;-65
2022/10/18 09:23:20;;;;;;;;;0.33;0.33;;;;;19.90;75.17;102205.81;5078516;28;45719;-65
2022/10/18 09:25:48;;;;;;;;;4.33;1.00;;;;;19.85;74.60;102210.41;5075806;28;45340;-66
2022/10/18 09:28:23;;;;;;;;;1.00;1.00;;;;;19.85;74.35;102212.19;5076687;28;45389;-65
2022/10/18 09:31:00;;;;;;;;;4.00;2.50;;;;;19.95;75.05;102211.88;5078875;27;45472;-64
2022/10/18 09:33:39;;;;;;;;;1.25;1.00;;;;;20.28;75.03;102197.53;5078572;27;45366;-65
2022/10/18 09:36:08;;;;;;;;;1.75;1.75;;;;;20.67;74.51;102202.47;5078293;28;45331;-65
2022/10/18 09:38:42;;;;;;;;;2.00;2.00;;;;;21.20;74.39;102201.56;5068439;27;45513;-65
2022/10/18 09:41:15;;;;;;;;;1.25;1.25;;;;;21.43;70.87;102205.19;5068969;28;45531;-65
2022/10/18 09:44:37;;;;;;;;;2.00;1.00;;;;;21.34;71.03;102201.06;5070797;28;45344;-65
2022/10/18 09:47:20;;;;;;;;;0.00;0.00;;;;;21.26;70.24;102204.03;5052801;28;45671;-65
2022/10/18 09:49:57;;;;;;;;;1.00;1.00;;;;;21.32;71.20;102208.28;5071693;28;45343;-65
2022/10/18 09:52:50;;;;;;;;;1.00;1.00;;;;;21.51;69.92;102208.47;5058592;28;45588;-65
2022/10/18 09:55:24;;;;;;;;;2.00;1.00;;;;;21.54;69.40;102199.47;5061016;28;46445;-64
2022/10/18 09:57:54;;;;;;;;;0.67;0.33;;;;;21.53;69.02;102203.06;5065901;28;45395;-66
2022/10/18 10:00:26;;;;;;;;;0.67;0.67;;;;;21.62;69.12;102213.44;5059961;28;45320;-65
2022/10/18 10:02:52;;;;;;;;;1.00;1.00;;;;;21.71;69.09;102213.09;5059879;28;45424;-65
2022/10/18 10:05:18;;;;;;;;;4.00;4.00;;;;;21.75;68.31;102208.50;5059859;28;46200;-65
2022/10/18 10:07:46;;;;;;;;;3.00;3.00;;;;;21.73;67.75;102213.91;5059894;28;45299;-65
2022/10/18 10:10:24;;;;;;;;;3.00;1.75;;;;;21.71;68.14;102206.88;5059766;28;45336;-66
2022/10/18 10:13:15;;;;;;;;;3.00;1.75;;;;;21.71;67.88;102205.09;5059632;28;45524;-66
2022/10/18 10:15:50;;;;;;;;;4.75;3.25;;;;;21.73;68.40;102205.03;5076658;28;46052;-65
2022/10/18 10:18:29;;;;;;;;;1.00;1.00;;;;;21.73;67.59;102200.53;5066743;28;45318;-66
2022/10/18 10:20:59;;;;;;;;;5.25;4.00;;;;;21.72;67.71;102219.31;5066437;27;45365;-65
2022/10/18 10:23:29;;;;;;;;;2.00;2.00;;;;;21.68;67.51;102220.38;5070670;27;45704;-65
2022/10/18 10:25:58;;;;;;;;;3.00;1.50;;;;;21.62;67.31;102217.94;5059274;28;46062;-67
2022/10/18 10:28:47;;;;;;;;;1.00;1.00;;;;;21.56;68.14;102219.03;5058505;28;45726;-66
2022/10/18 10:31:15;;;;;;;;;2.00;2.00;;;;;21.55;68.42;102222.59;5066864;28;45235;-66
2022/10/18 10:33:45;;;;;;;;;5.50;2.75;;;;;21.59;67.76;102225.13;5065358;28;45257;-66
2022/10/18 10:36:20;;;;;;;;;1.00;1.00;;;;;21.62;67.59;102218.78;5059704;28;45257;-65
2022/10/18 10:39:01;;;;;;;;;0.67;0.67;;;;;21.66;67.94;102220.44;5064051;28;45322;-65
2022/10/18 10:41:27;;;;;;;;;0.00;0.00;;;;;21.63;67.77;102217.88;5067929;27;45273;-65
2022/10/18 10:43:52;;;;;;;;;1.00;0.00;;;;;21.63;67.88;102223.22;5070364;28;45375;-66
2022/10/18 10:46:20;;;;;;;;;0.00;0.00;;;;;21.65;67.57;102220.50;5080087;27;45951;-67
2022/10/18 10:48:53;;;;;;;;;1.67;1.67;;;;;21.60;67.48;102204.63;5059664;28;45383;-67
2022/10/18 10:51:39;;;;;;;;;1.00;1.00;;;;;21.55;67.31;102212.81;5059383;28;45239;-66
2022/10/18 10:54:16;;;;;;;;;1.00;1.00;;;;;21.50;67.16;102219.25;5071093;28;45531;-66
2022/10/18 10:56:57;;;;;;;;;1.67;1.00;;;;;21.45;67.30;102215.88;5065054;27;46316;-68
2022/10/18 10:59:26;;;;;;;;;2.00;1.00;;;;;21.38;68.32;102215.19;5062942;28;45360;-68
2022/10/18 11:02:20;;;;;;;;;1.00;1.00;;;;;21.33;67.54;102209.13;5061465;28;45342;-68
2022/10/18 11:04:51;;;;;;;;;0.00;0.00;;;;;21.25;67.90;102215.63;5059201;28;45325;-66
2022/10/18 11:07:32;;;;;;;;;1.00;1.00;;;;;21.21;68.47;102205.13;5062550;28;45688;-66
2022/10/18 11:10:09;;;;;;;;;1.00;1.00;;;;;21.15;68.83;102208.00;5062657;28;45158;-67
2022/10/18 11:12:46;;;;;;;;;2.25;2.25;;;;;21.13;68.95;102209.84;5062429;28;45509;-66
2022/10/18 11:15:17;;;;;;;;;4.00;1.00;;;;;21.13;69.38;102209.84;5075155;28;45341;-66
2022/10/18 11:18:20;;;;;;;;;1.00;1.00;;;;;21.13;68.96;102210.75;5080520;28;46124;-65
2022/10/18 11:20:55;;;;;;;;;3.00;1.00;;;;;21.10;68.83;102202.81;5067026;28;45256;-67
2022/10/18 11:23:27;;;;;;;;;1.00;1.00;;;;;21.10;69.10;102201.00;5074323;28;45528;-67
2022/10/18 11:26:17;;;;;;;;;3.00;1.75;;;;;21.07;68.54;102201.13;5061965;28;45419;-65
2022/10/18 11:28:51;;;;;;;;;1.00;1.00;;;;;21.03;68.70;102194.16;5062307;28;45405;-66
2022/10/18 11:31:19;;;;;;;;;0.33;0.33;;;;;21.01;69.04;102195.16;5069548;28;45390;-66
2022/10/18 11:33:57;;;;;;;;;0.00;0.00;;;;;21.00;68.67;102193.41;5068287;27;45457;-66
2022/10/18 11:36:22;;;;;;;;;1.00;1.00;;;;;21.03;69.07;102191.50;5062350;28;45299;-66